Time;durP1;ratioP1;P1;durP2;ratioP2;P2;SDS_P1;SDS_P2;PMS_P1;PMS_P2;Temp;Humidity;BMP_temperature;BMP_pressure;BME280_temperature;BME280_humidity;BME280_pressure;Samples;Min_cycle;Max_cycle;Signal;HPM_P1;HPM_P2
2021/06/18 00:01:24;;;;;;;10.13;5.57;;;26.00;99.90;;;;;;5115180;27;20531;-70
2021/06/18 00:03:51;;;;;;;6.03;4.57;;;25.90;99.90;;;;;;5106073;27;20475;-69
2021/06/18 00:06:18;;;;;;;4.80;4.30;;;26.00;99.90;;;;;;5110597;27;20504;-71
2021/06/18 00:08:46;;;;;;;5.10;3.97;;;26.00;99.90;;;;;;5112298;27;20441;-70
2021/06/18 00:11:13;;;;;;;4.80;3.93;;;25.90;99.90;;;;;;5113323;27;20576;-69
2021/06/18 00:13:40;;;;;;;6.07;5.30;;;25.80;99.90;;;;;;5104980;27;20445;-72
2021/06/18 00:16:08;;;;;;;10.90;5.70;;;25.60;99.90;;;;;;5110403;27;20476;-69
2021/06/18 00:18:36;;;;;;;9.37;4.87;;;25.60;99.90;;;;;;5107248;27;20828;-69
2021/06/18 00:21:04;;;;;;;10.90;5.50;;;25.50;99.90;;;;;;5111190;27;20455;-71
2021/06/18 00:23:31;;;;;;;5.77;4.50;;;25.40;99.90;;;;;;5109939;27;20472;-70
2021/06/18 00:25:58;;;;;;;7.10;6.40;;;25.50;99.90;;;;;;5110895;27;20492;-70
2021/06/18 00:28:25;;;;;;;8.67;5.37;;;25.60;99.90;;;;;;5111903;27;20456;-71
2021/06/18 00:30:52;;;;;;;6.47;5.87;;;25.50;99.90;;;;;;5115867;27;20443;-70
2021/06/18 00:33:20;;;;;;;8.83;5.47;;;25.40;99.90;;;;;;5111260;27;20443;-70
2021/06/18 00:35:47;;;;;;;5.80;5.20;;;25.40;99.90;;;;;;5108516;27;20569;-71
2021/06/18 00:38:14;;;;;;;5.90;5.30;;;25.30;99.90;;;;;;5115635;27;20560;-70
2021/06/18 00:40:41;;;;;;;5.80;5.13;;;25.30;99.90;;;;;;5112147;27;20890;-68
2021/06/18 00:43:08;;;;;;;5.27;4.77;;;25.30;99.90;;;;;;5111896;27;21205;-69
2021/06/18 00:45:34;;;;;;;9.07;5.77;;;25.20;99.90;;;;;;5107323;27;20511;-69
2021/06/18 00:48:01;;;;;;;7.30;5.10;;;25.30;99.90;;;;;;5109682;27;21051;-69
2021/06/18 00:50:31;;;;;;;7.20;5.43;;;25.20;99.90;;;;;;5114557;27;20476;-68
2021/06/18 00:52:58;;;;;;;6.50;5.50;;;25.10;99.90;;;;;;5109848;27;21277;-70
2021/06/18 00:55:25;;;;;;;7.87;5.67;;;25.00;99.90;;;;;;5104930;27;20468;-68
2021/06/18 00:57:53;;;;;;;8.13;6.20;;;24.90;99.90;;;;;;5111212;27;20536;-68
2021/06/18 01:00:22;;;;;;;6.43;5.10;;;24.90;99.90;;;;;;5110744;27;20943;-69
2021/06/18 01:02:49;;;;;;;6.03;5.43;;;24.80;99.90;;;;;;5110192;27;20509;-67
2021/06/18 01:05:18;;;;;;;10.67;6.13;;;24.80;99.90;;;;;;5105855;27;20483;-72
2021/06/18 01:07:53;;;;;;;9.53;5.53;;;24.90;99.90;;;;;;5109439;27;20527;-69
2021/06/18 01:10:27;;;;;;;9.33;5.53;;;24.90;99.90;;;;;;5109549;27;20518;-67
2021/06/18 01:13:06;;;;;;;6.77;6.10;;;25.00;99.90;;;;;;5110284;27;20504;-68
2021/06/18 01:15:42;;;;;;;6.13;5.50;;;25.00;99.90;;;;;;5107062;27;20547;-68
2021/06/18 01:18:15;;;;;;;5.30;4.83;;;25.10;99.90;;;;;;5111020;27;23426;-68
2021/06/18 01:21:04;;;;;;;7.40;5.43;;;25.00;99.90;;;;;;5110764;27;20481;-70
2021/06/18 01:24:05;;;;;;;7.00;4.60;;;24.70;99.90;;;;;;5099575;27;20816;-68
2021/06/18 01:26:43;;;;;;;6.50;4.73;;;24.30;99.90;;;;;;5096762;27;20666;-67
2021/06/18 01:29:12;;;;;;;8.27;4.30;;;24.30;99.90;;;;;;5109288;27;20531;-68
2021/06/18 01:31:42;;;;;;;6.67;5.80;;;24.10;99.90;;;;;;5108660;27;20451;-70
2021/06/18 01:34:14;;;;;;;5.50;4.47;;;23.70;99.90;;;;;;5117157;27;20479;-72
2021/06/18 01:36:44;;;;;;;7.37;4.83;;;23.50;99.90;;;;;;5110309;28;20594;-69
2021/06/18 01:39:12;;;;;;;5.97;5.30;;;23.60;99.90;;;;;;5111522;27;20535;-69
2021/06/18 01:41:41;;;;;;;6.97;5.27;;;23.90;99.90;;;;;;5109609;28;20508;-67
2021/06/18 01:44:11;;;;;;;7.93;4.73;;;24.10;99.90;;;;;;5107884;27;20562;-68
2021/06/18 01:46:40;;;;;;;7.27;5.60;;;24.10;99.90;;;;;;5103806;28;20564;-70
2021/06/18 01:49:10;;;;;;;8.30;6.70;;;24.20;99.90;;;;;;5103153;28;20444;-68
2021/06/18 01:51:39;;;;;;;7.10;5.50;;;24.30;99.90;;;;;;5112786;28;20535;-68
2021/06/18 01:54:07;;;;;;;8.50;5.70;;;24.30;99.90;;;;;;5113917;28;20440;-68
2021/06/18 01:56:39;;;;;;;7.50;5.10;;;24.30;99.90;;;;;;5106738;28;20515;-69
2021/06/18 01:59:07;;;;;;;7.10;6.20;;;24.30;99.90;;;;;;5108639;27;20488;-68
2021/06/18 02:01:37;;;;;;;7.57;6.87;;;24.30;99.90;;;;;;5113457;28;20860;-70
2021/06/18 02:04:06;;;;;;;7.53;5.30;;;24.40;99.90;;;;;;5110525;28;20504;-68
2021/06/18 02:06:34;;;;;;;9.27;5.60;;;24.30;99.90;;;;;;5107497;28;20508;-68
2021/06/18 02:09:03;;;;;;;8.57;6.53;;;24.30;99.90;;;;;;5113636;28;20490;-70
2021/06/18 02:11:31;;;;;;;9.40;5.67;;;24.40;99.90;;;;;;5108191;28;20529;-69
2021/06/18 02:13:59;;;;;;;9.43;5.07;;;24.40;99.90;;;;;;5113040;28;20496;-68
2021/06/18 02:16:28;;;;;;;6.87;5.90;;;24.40;99.90;;;;;;5106057;28;20483;-68
2021/06/18 02:18:58;;;;;;;6.87;6.17;;;24.40;99.90;;;;;;5114665;28;20506;-69
2021/06/18 02:21:27;;;;;;;15.57;5.77;;;24.40;99.90;;;;;;5111267;27;20452;-68
2021/06/18 02:23:55;;;;;;;8.30;5.33;;;24.30;99.90;;;;;;5114683;27;20575;-68
2021/06/18 02:26:25;;;;;;;5.90;5.23;;;24.20;99.90;;;;;;5103844;28;21206;-68
2021/06/18 02:28:52;;;;;;;6.87;6.00;;;24.10;99.90;;;;;;5110066;28;20455;-69
2021/06/18 02:31:21;;;;;;;8.13;6.30;;;24.10;99.90;;;;;;5114132;28;20989;-68
2021/06/18 02:33:49;;;;;;;8.40;6.03;;;24.10;99.90;;;;;;5111464;28;20530;-68
2021/06/18 02:36:18;;;;;;;10.33;5.97;;;24.10;99.90;;;;;;5109215;28;21216;-68
2021/06/18 02:38:45;;;;;;;11.27;5.90;;;24.20;99.90;;;;;;5112635;28;20547;-68
2021/06/18 02:41:12;;;;;;;9.03;5.50;;;23.90;99.90;;;;;;5111011;28;20546;-69
2021/06/18 02:43:39;;;;;;;10.03;7.67;;;23.50;99.90;;;;;;5112052;28;20519;-70
2021/06/18 02:46:06;;;;;;;7.77;6.10;;;23.20;99.90;;;;;;5105653;28;20578;-68
2021/06/18 02:48:40;;;;;;;5.27;4.77;;;23.20;99.90;;;;;;5108665;28;20537;-69
2021/06/18 02:51:16;;;;;;;8.53;6.70;;;23.40;99.90;;;;;;5108586;27;20529;-68
2021/06/18 02:53:50;;;;;;;13.10;8.10;;;23.40;99.90;;;;;;5113112;27;20433;-68
2021/06/18 02:56:23;;;;;;;7.13;5.60;;;23.50;99.90;;;;;;5105629;27;21049;-68
2021/06/18 02:58:55;;;;;;;7.27;6.57;;;23.40;99.90;;;;;;5114861;27;20455;-68
2021/06/18 03:01:26;;;;;;;11.13;8.07;;;23.30;99.90;;;;;;5113833;27;20480;-68
2021/06/18 03:03:58;;;;;;;9.30;8.10;;;23.40;99.90;;;;;;5116130;27;20504;-68
2021/06/18 03:06:25;;;;;;;12.93;7.77;;;23.50;99.90;;;;;;5114696;27;21096;-68
2021/06/18 03:08:58;;;;;;;11.27;8.60;;;23.50;99.90;;;;;;5122065;27;20547;-70
2021/06/18 03:11:29;;;;;;;9.00;7.47;;;23.70;99.90;;;;;;5112137;27;20440;-68
2021/06/18 03:14:00;;;;;;;9.33;8.33;;;23.70;99.90;;;;;;5109736;27;20453;-69
2021/06/18 03:16:28;;;;;;;11.20;8.77;;;23.80;99.90;;;;;;5111861;27;20540;-69
2021/06/18 03:18:59;;;;;;;11.37;8.33;;;23.80;99.90;;;;;;5110441;27;20492;-68
2021/06/18 03:21:30;;;;;;;11.57;9.23;;;23.80;99.90;;;;;;5114764;27;20440;-68
2021/06/18 03:24:01;;;;;;;13.93;8.30;;;23.90;99.90;;;;;;5106167;27;20523;-68
2021/06/18 03:26:28;;;;;;;8.43;7.40;;;23.70;99.90;;;;;;5110546;27;20519;-68
2021/06/18 03:28:57;;;;;;;8.77;7.87;;;23.70;99.90;;;;;;5107874;27;20869;-68
2021/06/18 03:31:25;;;;;;;7.80;7.10;;;23.70;99.90;;;;;;5117572;27;20452;-68
2021/06/18 03:33:54;;;;;;;12.67;7.93;;;23.90;99.90;;;;;;5112864;27;20452;-69
2021/06/18 03:36:24;;;;;;;10.13;7.80;;;23.80;99.90;;;;;;5113674;27;21020;-69
2021/06/18 03:38:52;;;;;;;13.83;8.23;;;24.00;99.90;;;;;;5106924;27;20460;-69
2021/06/18 03:41:22;;;;;;;13.03;8.60;;;23.90;99.90;;;;;;5116089;27;20892;-69
2021/06/18 03:43:50;;;;;;;12.47;8.50;;;23.90;99.90;;;;;;5108939;27;21033;-69
2021/06/18 03:46:18;;;;;;;11.40;8.53;;;23.80;99.90;;;;;;5103600;27;20610;-69
2021/06/18 03:48:46;;;;;;;10.40;8.50;;;23.70;99.90;;;;;;5117857;27;20534;-69
2021/06/18 03:51:15;;;;;;;13.30;9.00;;;23.70;99.90;;;;;;5113614;27;20448;-70
2021/06/18 03:53:43;;;;;;;10.73;8.80;;;23.70;99.90;;;;;;5111473;27;20877;-68
2021/06/18 03:56:12;;;;;;;9.97;8.77;;;23.70;99.90;;;;;;5110172;27;20503;-69
2021/06/18 03:58:42;;;;;;;10.03;9.03;;;23.80;99.90;;;;;;5109747;27;20579;-68
2021/06/18 04:01:12;;;;;;;9.87;8.73;;;23.80;99.90;;;;;;5109544;27;20444;-68
2021/06/18 04:03:43;;;;;;;13.90;9.93;;;23.80;99.90;;;;;;5112252;27;21356;-68
2021/06/18 04:06:10;;;;;;;17.00;9.20;;;23.90;99.90;;;;;;5107809;27;20710;-69
2021/06/18 04:08:38;;;;;;;14.20;9.80;;;23.80;99.90;;;;;;5108033;27;20457;-68
2021/06/18 04:11:06;;;;;;;12.17;10.27;;;23.80;99.90;;;;;;5112000;27;20466;-69
2021/06/18 04:13:33;;;;;;;10.10;8.90;;;23.70;99.90;;;;;;5109497;27;20463;-68
2021/06/18 04:16:02;;;;;;;16.13;9.10;;;23.80;99.90;;;;;;5111002;27;20464;-69
2021/06/18 04:18:32;;;;;;;11.20;8.63;;;23.80;99.90;;;;;;5112023;27;21027;-68
2021/06/18 04:21:03;;;;;;;11.03;9.10;;;23.90;99.90;;;;;;5118871;27;20940;-69
2021/06/18 04:23:30;;;;;;;9.90;8.20;;;23.90;99.90;;;;;;5119411;27;20463;-69
2021/06/18 04:25:57;;;;;;;9.00;8.10;;;23.90;99.90;;;;;;5111328;27;20480;-67
2021/06/18 04:28:24;;;;;;;10.67;8.27;;;23.90;99.90;;;;;;5109333;27;20538;-68
2021/06/18 04:30:51;;;;;;;13.33;9.83;;;24.00;99.90;;;;;;5108381;27;20550;-69
2021/06/18 04:33:20;;;;;;;11.30;8.47;;;24.00;99.90;;;;;;5112262;27;20498;-69
2021/06/18 04:35:47;;;;;;;13.40;9.53;;;24.10;99.90;;;;;;5113789;27;20993;-68
2021/06/18 04:38:14;;;;;;;9.60;8.70;;;24.20;99.90;;;;;;5109051;27;20658;-70
2021/06/18 04:40:41;;;;;;;10.47;8.77;;;24.20;99.90;;;;;;5109227;27;20472;-69
2021/06/18 04:43:08;;;;;;;10.83;8.63;;;24.20;99.90;;;;;;5112207;27;20525;-68
2021/06/18 04:45:35;;;;;;;9.80;8.80;;;24.10;99.90;;;;;;5114474;27;20543;-68
2021/06/18 04:48:02;;;;;;;10.03;8.80;;;24.20;99.90;;;;;;5115364;27;20518;-69
2021/06/18 04:50:31;;;;;;;14.00;8.73;;;24.20;99.90;;;;;;5110186;27;20471;-69
2021/06/18 04:52:59;;;;;;;10.93;9.07;;;24.30;99.90;;;;;;5123423;27;20472;-69
2021/06/18 04:55:27;;;;;;;13.53;9.67;;;24.30;99.90;;;;;;5115450;27;20979;-68
2021/06/18 04:57:54;;;;;;;12.70;9.27;;;24.30;99.90;;;;;;5119637;27;20539;-68
2021/06/18 05:00:24;;;;;;;12.50;8.73;;;24.40;99.90;;;;;;5115738;27;20467;-68
2021/06/18 05:02:51;;;;;;;11.93;7.70;;;24.50;99.90;;;;;;5117720;27;20457;-69
2021/06/18 05:05:18;;;;;;;12.27;9.20;;;24.80;99.90;;;;;;5117656;27;20528;-70
2021/06/18 05:07:47;;;;;;;10.23;9.03;;;24.80;99.90;;;;;;5118787;27;20508;-69
2021/06/18 05:10:14;;;;;;;10.10;9.10;;;25.00;99.90;;;;;;5122474;27;20441;-68
2021/06/18 05:12:41;;;;;;;13.93;9.57;;;25.00;99.90;;;;;;5123069;27;21038;-68
2021/06/18 05:15:09;;;;;;;9.43;8.43;;;25.00;99.90;;;;;;5113794;27;21014;-68
2021/06/18 05:17:36;;;;;;;13.90;9.87;;;25.20;99.90;;;;;;5120463;27;22134;-67
2021/06/18 05:20:03;;;;;;;16.80;8.63;;;25.10;99.90;;;;;;5114705;27;20822;-69
2021/06/18 05:22:31;;;;;;;9.70;8.70;;;25.20;99.90;;;;;;5113293;27;20536;-69
2021/06/18 05:24:59;;;;;;;11.07;8.63;;;25.20;99.90;;;;;;5117572;27;20503;-68
2021/06/18 05:27:26;;;;;;;18.00;9.83;;;25.30;99.90;;;;;;5114011;27;20567;-68
2021/06/18 05:29:53;;;;;;;9.20;8.40;;;25.30;99.90;;;;;;5117814;27;20448;-69
2021/06/18 05:32:20;;;;;;;10.63;8.20;;;25.50;99.90;;;;;;5118636;27;20524;-71
2021/06/18 05:34:47;;;;;;;12.53;11.20;;;25.60;99.90;;;;;;5124161;27;20882;-68
2021/06/18 05:37:15;;;;;;;13.77;9.17;;;25.90;99.90;;;;;;5118972;28;20539;-69
2021/06/18 05:39:43;;;;;;;11.83;9.87;;;26.30;99.90;;;;;;5123821;28;20444;-70
2021/06/18 05:42:11;;;;;;;12.30;9.83;;;26.60;99.90;;;;;;5126889;28;20873;-69
2021/06/18 05:44:38;;;;;;;10.27;7.83;;;26.80;99.90;;;;;;5120511;27;20540;-69
2021/06/18 05:47:05;;;;;;;11.63;8.93;;;26.90;99.90;;;;;;5126999;28;20487;-69
2021/06/18 05:49:32;;;;;;;9.70;8.80;;;27.10;99.90;;;;;;5119558;27;20445;-71
2021/06/18 05:51:59;;;;;;;10.27;7.70;;;27.00;99.90;;;;;;5122890;27;22796;-69
2021/06/18 05:54:26;;;;;;;11.17;9.83;;;27.20;99.90;;;;;;5123558;28;20455;-68
2021/06/18 05:56:54;;;;;;;11.23;8.57;;;27.30;99.90;;;;;;5121585;27;20507;-69
2021/06/18 05:59:22;;;;;;;10.27;8.23;;;27.40;99.90;;;;;;5122759;28;20443;-70
2021/06/18 06:01:49;;;;;;;13.03;9.33;;;27.80;99.90;;;;;;5121508;28;20539;-69
2021/06/18 06:04:16;;;;;;;9.10;8.20;;;27.80;99.90;;;;;;5119368;27;20480;-69
2021/06/18 06:06:43;;;;;;;16.50;8.63;;;28.20;99.90;;;;;;5119349;27;21052;-70
2021/06/18 06:09:10;;;;;;;8.23;7.63;;;28.70;99.90;;;;;;5111569;27;20459;-70
2021/06/18 06:11:37;;;;;;;9.40;7.50;;;28.70;99.90;;;;;;5116672;28;20513;-69
2021/06/18 06:14:05;;;;;;;12.27;6.97;;;28.40;99.90;;;;;;5110776;27;20530;-68
2021/06/18 06:16:35;;;;;;;11.47;7.03;;;28.60;99.90;;;;;;5118089;27;20497;-69
2021/06/18 06:19:03;;;;;;;12.40;7.67;;;28.70;99.90;;;;;;5114650;27;20547;-68
2021/06/18 06:21:30;;;;;;;8.40;7.60;;;28.50;99.90;;;;;;5113917;27;20888;-69
2021/06/18 06:23:57;;;;;;;14.57;7.93;;;28.70;99.90;;;;;;5116813;27;20536;-69
2021/06/18 06:26:24;;;;;;;9.70;7.27;;;29.10;99.90;;;;;;5119406;27;20917;-70
2021/06/18 06:28:51;;;;;;;8.20;7.30;;;29.30;99.90;;;;;;5125594;27;20516;-69
2021/06/18 06:31:18;;;;;;;10.23;8.57;;;29.30;99.90;;;;;;5118176;27;20464;-69
2021/06/18 06:33:46;;;;;;;13.37;7.67;;;29.50;99.90;;;;;;5118697;27;20536;-69
2021/06/18 06:36:14;;;;;;;14.97;9.47;;;30.00;99.90;;;;;;5121177;27;20484;-70
2021/06/18 06:38:40;;;;;;;9.27;8.27;;;30.00;99.90;;;;;;5115102;27;20452;-70
2021/06/18 06:41:07;;;;;;;10.67;8.50;;;30.30;99.90;;;;;;5118463;27;20897;-69
2021/06/18 06:43:34;;;;;;;10.43;8.97;;;30.70;99.90;;;;;;5115822;27;20863;-68
2021/06/18 06:46:01;;;;;;;14.43;7.77;;;31.00;99.90;;;;;;5117303;27;20916;-69
2021/06/18 06:48:28;;;;;;;8.90;8.03;;;30.80;99.90;;;;;;5118578;27;20452;-68
2021/06/18 06:50:57;;;;;;;9.10;8.17;;;30.60;99.90;;;;;;5127380;27;20785;-70
2021/06/18 06:53:24;;;;;;;9.13;8.23;;;31.20;99.90;;;;;;5121573;27;20496;-70
2021/06/18 06:55:51;;;;;;;11.67;8.43;;;31.00;99.90;;;;;;5120179;27;20567;-72
2021/06/18 06:58:18;;;;;;;9.30;7.80;;;30.90;99.90;;;;;;5124603;27;20443;-70
2021/06/18 07:00:45;;;;;;;11.47;8.43;;;31.50;99.90;;;;;;5127702;27;20476;-71
2021/06/18 07:03:12;;;;;;;9.83;7.63;;;31.60;99.90;;;;;;5123102;27;20484;-70
2021/06/18 07:05:39;;;;;;;10.33;9.30;;;31.90;99.90;;;;;;5122939;27;20932;-70
2021/06/18 07:08:18;;;;;;;8.80;7.70;;;31.60;99.90;;;;;;5120965;27;20437;-69
2021/06/18 07:10:46;;;;;;;9.00;8.20;;;31.40;99.90;;;;;;5128940;27;20479;-68
2021/06/18 07:13:13;;;;;;;11.60;9.33;;;32.10;99.90;;;;;;5120641;27;20441;-69
2021/06/18 07:15:40;;;;;;;11.00;8.53;;;32.40;99.90;;;;;;5118299;27;20544;-70
2021/06/18 07:18:07;;;;;;;19.07;10.90;;;32.50;99.90;;;;;;5126368;27;20451;-69
2021/06/18 07:20:34;;;;;;;8.47;7.67;;;33.00;99.90;;;;;;5117799;27;20512;-71
2021/06/18 07:23:01;;;;;;;11.63;9.87;;;32.60;99.90;;;;;;5117095;27;20902;-68
2021/06/18 07:25:30;;;;;;;11.47;8.23;;;33.00;99.90;;;;;;5113641;27;20960;-69
2021/06/18 07:27:57;;;;;;;11.57;9.13;;;33.20;99.90;;;;;;5112400;27;20549;-70
2021/06/18 07:30:24;;;;;;;11.30;9.00;;;33.30;99.90;;;;;;5119634;27;20448;-70
2021/06/18 07:32:51;;;;;;;9.60;8.63;;;32.70;99.90;;;;;;5116770;27;20995;-70
2021/06/18 07:35:18;;;;;;;17.37;10.37;;;32.20;99.90;;;;;;5117551;27;21046;-71
2021/06/18 07:37:45;;;;;;;17.53;12.07;;;32.50;99.90;;;;;;5117094;27;20560;-70
2021/06/18 07:40:14;;;;;;;14.60;9.77;;;33.30;99.90;;;;;;5122674;27;21041;-69
2021/06/18 07:42:43;;;;;;;10.20;9.27;;;34.10;99.90;;;;;;5117954;27;20520;-70
2021/06/18 07:45:12;;;;;;;10.60;8.87;;;34.30;99.90;;;;;;5118125;27;20460;-68
2021/06/18 07:47:39;;;;;;;10.47;9.37;;;33.00;99.90;;;;;;5113316;27;20451;-68
2021/06/18 07:50:08;;;;;;;19.50;9.47;;;33.30;99.90;;;;;;5119589;27;20455;-69
2021/06/18 07:52:35;;;;;;;24.07;9.70;;;33.60;99.90;;;;;;5121167;27;20478;-68
2021/06/18 07:55:03;;;;;;;11.97;10.63;;;33.70;99.90;;;;;;5122997;27;20440;-68
2021/06/18 07:57:30;;;;;;;15.10;12.47;;;33.50;99.90;;;;;;5124783;27;20493;-68
2021/06/18 07:59:58;;;;;;;15.43;13.90;;;33.50;99.90;;;;;;5125152;27;20436;-70
2021/06/18 08:02:25;;;;;;;12.63;11.43;;;34.50;99.90;;;;;;5117126;27;20444;-70
2021/06/18 08:04:52;;;;;;;11.43;10.33;;;34.20;99.90;;;;;;5124477;27;20988;-70
2021/06/18 08:07:19;;;;;;;14.13;11.13;;;34.00;99.90;;;;;;5125088;27;20542;-70
2021/06/18 08:09:46;;;;;;;12.73;11.50;;;34.40;99.90;;;;;;5118019;27;20528;-70
2021/06/18 08:12:13;;;;;;;13.13;11.70;;;34.40;99.90;;;;;;5109476;27;20543;-70
2021/06/18 08:14:40;;;;;;;13.50;12.20;;;34.90;99.90;;;;;;5123988;27;20530;-70
2021/06/18 08:17:10;;;;;;;15.33;10.60;;;34.90;99.90;;;;;;5124416;27;20507;-69
2021/06/18 08:19:37;;;;;;;12.00;10.80;;;35.30;99.90;;;;;;5124129;27;20946;-71
2021/06/18 08:22:05;;;;;;;17.93;9.77;;;35.00;99.90;;;;;;5123668;27;20441;-70
2021/06/18 08:24:32;;;;;;;15.03;11.10;;;35.70;99.90;;;;;;5119194;27;20456;-70
2021/06/18 08:26:59;;;;;;;17.37;11.13;;;36.10;99.90;;;;;;5120996;27;20537;-71
2021/06/18 08:29:26;;;;;;;16.80;9.93;;;35.90;99.90;;;;;;5117906;27;20542;-69
2021/06/18 08:31:53;;;;;;;13.27;11.80;;;35.50;99.90;;;;;;5118912;27;20988;-69
2021/06/18 08:34:22;;;;;;;15.30;9.83;;;35.80;99.90;;;;;;5119811;27;20488;-69
2021/06/18 08:36:49;;;;;;;12.67;11.33;;;35.30;99.90;;;;;;5115478;27;20571;-69
2021/06/18 08:39:16;;;;;;;13.20;11.77;;;35.80;99.90;;;;;;5124048;27;20526;-70
2021/06/18 08:41:43;;;;;;;12.50;9.60;;;36.80;99.90;;;;;;5122613;27;20478;-69
2021/06/18 08:44:10;;;;;;;10.40;9.40;;;36.80;99.90;;;;;;5118470;27;20446;-71
2021/06/18 08:46:37;;;;;;;15.70;11.97;;;37.00;99.90;;;;;;5117149;27;20500;-69
2021/06/18 08:49:04;;;;;;;11.63;10.43;;;36.70;99.90;;;;;;5113833;27;20513;-70
2021/06/18 08:51:32;;;;;;;13.27;10.43;;;36.80;99.90;;;;;;5113998;27;21020;-70
2021/06/18 08:53:59;;;;;;;11.77;10.60;;;37.60;99.90;;;;;;5118945;27;20455;-70
2021/06/18 08:56:26;;;;;;;11.17;10.27;;;37.70;99.40;;;;;;5117704;27;20904;-70
2021/06/18 08:58:54;;;;;;;16.80;9.23;;;38.00;98.60;;;;;;5123605;27;20471;-68
2021/06/18 09:01:21;;;;;;;13.83;9.07;;;38.20;98.40;;;;;;5120761;27;20472;-69
2021/06/18 09:03:49;;;;;;;12.83;8.57;;;38.20;97.70;;;;;;5120208;27;20463;-70
2021/06/18 09:06:30;;;;;;;9.63;7.33;;;37.60;97.90;;;;;;5116259;27;20488;-70
2021/06/18 09:09:16;;;;;;;8.80;8.10;;;38.10;96.70;;;;;;5124000;27;20897;-69
2021/06/18 09:11:46;;;;;;;8.97;7.67;;;38.40;95.70;;;;;;5117158;27;20452;-70
2021/06/18 09:14:23;;;;;;;8.97;7.50;;;38.80;95.00;;;;;;5113592;27;20543;-71
2021/06/18 09:17:11;;;;;;;12.90;8.97;;;39.00;93.80;;;;;;5119322;27;20480;-68
2021/06/18 09:19:42;;;;;;;9.03;8.00;;;38.90;91.30;;;;;;5119799;27;20486;-70
2021/06/18 09:22:11;;;;;;;8.17;7.37;;;39.00;92.00;;;;;;5119331;27;20454;-69
2021/06/18 09:24:42;;;;;;;12.27;6.70;;;39.00;90.60;;;;;;5115840;27;20476;-72
2021/06/18 09:27:10;;;;;;;8.83;7.43;;;39.50;91.10;;;;;;5114974;27;20487;-71
2021/06/18 09:29:38;;;;;;;9.53;6.97;;;40.50;88.50;;;;;;5117478;27;21049;-68
2021/06/18 09:32:07;;;;;;;7.90;7.20;;;40.40;87.30;;;;;;5119677;27;20491;-69
2021/06/18 09:34:40;;;;;;;11.00;6.53;;;39.40;86.80;;;;;;5118003;27;20532;-70
2021/06/18 09:37:22;;;;;;;10.70;7.90;;;38.40;86.90;;;;;;5123921;27;20994;-69
2021/06/18 09:40:09;;;;;;;8.17;6.97;;;37.90;87.50;;;;;;5118112;27;20933;-69
2021/06/18 09:42:38;;;;;;;8.67;6.83;;;36.70;90.50;;;;;;5120534;28;20479;-70
2021/06/18 09:45:09;;;;;;;8.20;7.40;;;35.90;92.50;;;;;;5119217;28;20456;-70
2021/06/18 09:47:37;;;;;;;10.00;7.50;;;35.20;93.20;;;;;;5119850;28;20496;-69
2021/06/18 09:50:06;;;;;;;9.40;7.90;;;35.00;93.70;;;;;;5114977;28;20449;-68
2021/06/18 09:52:33;;;;;;;8.63;7.77;;;34.90;94.90;;;;;;5118198;28;20475;-70
2021/06/18 09:55:02;;;;;;;10.17;7.70;;;35.00;95.00;;;;;;5118114;27;20460;-69
2021/06/18 09:57:39;;;;;;;10.00;7.50;;;34.80;94.30;;;;;;5122083;28;20832;-68
2021/06/18 10:00:08;;;;;;;9.40;7.23;;;34.40;95.10;;;;;;5114801;27;20450;-68
2021/06/18 10:02:40;;;;;;;11.03;8.53;;;34.80;94.60;;;;;;5117527;27;20461;-70
2021/06/18 10:05:10;;;;;;;13.17;7.10;;;35.00;94.00;;;;;;5118588;27;21034;-68
2021/06/18 10:07:38;;;;;;;10.93;10.03;;;35.00;95.60;;;;;;5118431;27;20555;-70
2021/06/18 10:10:09;;;;;;;10.87;7.83;;;35.30;95.10;;;;;;5122894;27;20455;-68
2021/06/18 10:12:37;;;;;;;10.33;6.73;;;35.80;94.60;;;;;;5120779;27;20520;-68
2021/06/18 10:15:07;;;;;;;8.83;6.87;;;36.10;95.20;;;;;;5114878;27;20460;-70
2021/06/18 10:17:35;;;;;;;13.40;7.07;;;36.40;94.70;;;;;;5118535;27;20504;-70
2021/06/18 10:20:03;;;;;;;9.00;7.20;;;35.90;94.80;;;;;;5123728;27;20473;-69
2021/06/18 10:22:32;;;;;;;7.47;6.77;;;35.70;94.40;;;;;;5119947;27;20527;-69
2021/06/18 10:25:03;;;;;;;8.73;7.83;;;36.10;95.30;;;;;;5119075;27;20535;-69
2021/06/18 10:27:35;;;;;;;9.30;6.67;;;36.70;94.20;;;;;;5113195;27;20464;-70
2021/06/18 10:30:28;;;;;;;9.80;7.13;;;37.10;93.80;;;;;;5116305;27;20474;-71
2021/06/18 10:32:57;;;;;;;9.97;7.27;;;37.60;93.40;;;;;;5118364;27;20508;-70
2021/06/18 10:35:43;;;;;;;7.80;7.10;;;37.40;91.40;;;;;;5122165;27;20482;-69
2021/06/18 10:38:15;;;;;;;10.60;7.40;;;36.70;92.20;;;;;;5122415;27;20447;-68
2021/06/18 10:40:46;;;;;;;9.57;7.93;;;36.30;92.80;;;;;;5120322;27;20440;-70
2021/06/18 10:43:15;;;;;;;9.00;7.90;;;35.70;93.50;;;;;;5117556;27;20525;-68
2021/06/18 10:46:12;;;;;;;16.03;7.23;;;35.50;93.60;;;;;;5114194;27;20563;-68
2021/06/18 10:48:59;;;;;;;9.13;7.37;;;35.50;94.50;;;;;;5120605;27;20814;-69
2021/06/18 10:51:45;;;;;;;12.30;8.80;;;35.40;94.40;;;;;;5121401;27;20494;-69
2021/06/18 10:54:16;;;;;;;7.50;5.97;;;35.70;92.80;;;;;;5124388;27;20521;-69
2021/06/18 10:57:04;;;;;;;7.90;6.03;;;35.50;91.30;;;;;;5118608;27;20525;-69
2021/06/18 10:59:35;;;;;;;5.73;5.33;;;35.20;91.90;;;;;;5121352;27;20468;-70
2021/06/18 11:02:04;;;;;;;5.33;4.83;;;35.40;90.20;;;;;;5118443;27;20448;-69
2021/06/18 11:04:38;;;;;;;13.90;6.47;;;35.10;89.90;;;;;;5118135;27;20439;-69
2021/06/18 11:07:22;;;;;;;12.40;7.60;;;35.30;89.00;;;;;;5117740;27;20540;-69
2021/06/18 11:09:50;;;;;;;8.50;6.63;;;35.20;93.00;;;;;;5124124;27;20464;-71
2021/06/18 11:12:46;;;;;;;13.97;7.03;;;35.10;92.90;;;;;;5121993;27;20497;-70
2021/06/18 11:15:43;;;;;;;7.30;6.13;;;35.10;92.80;;;;;;5117158;27;20440;-69
2021/06/18 11:18:16;;;;;;;8.40;6.63;;;35.00;93.10;;;;;;5070634;27;21187;-68
2021/06/18 11:20:54;;;;;;;7.10;6.40;;;34.60;93.60;;;;;;5116353;27;20444;-71
2021/06/18 11:23:23;;;;;;;8.40;7.50;;;34.70;92.90;;;;;;5124067;27;20514;-68
2021/06/18 11:25:59;;;;;;;8.83;6.47;;;34.80;94.00;;;;;;5120533;27;20524;-68
2021/06/18 11:28:50;;;;;;;7.77;6.90;;;34.90;94.20;;;;;;5111733;27;20471;-69
2021/06/18 11:31:35;;;;;;;9.97;6.67;;;34.70;94.10;;;;;;5117824;27;20480;-67
2021/06/18 11:34:02;;;;;;;12.40;7.23;;;34.90;95.10;;;;;;5124080;27;20544;-69
2021/06/18 11:36:53;;;;;;;7.90;7.07;;;34.80;95.70;;;;;;5117416;27;20558;-68
2021/06/18 11:39:25;;;;;;;7.30;6.63;;;35.00;95.40;;;;;;5118199;27;20858;-69
2021/06/18 11:42:06;;;;;;;8.60;6.53;;;35.30;95.70;;;;;;5118874;27;20448;-71
2021/06/18 11:44:34;;;;;;;7.20;6.50;;;35.50;95.30;;;;;;5117985;27;20535;-70
2021/06/18 11:47:03;;;;;;;10.73;7.23;;;35.30;94.30;;;;;;5116007;27;20980;-69
2021/06/18 11:49:34;;;;;;;7.80;6.90;;;35.10;95.10;;;;;;5116328;27;20452;-69
2021/06/18 11:52:12;;;;;;;13.37;7.23;;;35.10;94.70;;;;;;5116452;27;20456;-70
2021/06/18 11:54:41;;;;;;;9.40;6.13;;;35.00;95.60;;;;;;5123428;27;20460;-71
2021/06/18 11:57:17;;;;;;;7.90;6.13;;;35.80;94.30;;;;;;5117401;27;20575;-69
2021/06/18 11:59:52;;;;;;;11.00;6.70;;;36.10;93.30;;;;;;5112564;27;20824;-70
2021/06/18 12:02:25;;;;;;;6.97;6.20;;;36.10;92.80;;;;;;5114656;27;20460;-71
2021/06/18 12:05:17;;;;;;;7.30;6.57;;;36.30;93.70;;;;;;5122660;27;20496;-70
2021/06/18 12:07:45;;;;;;;7.50;5.63;;;37.40;91.20;;;;;;5106321;27;20507;-69
2021/06/18 12:10:23;;;;;;;9.53;5.73;;;38.70;90.00;;;;;;5114316;27;20584;-70
2021/06/18 12:12:51;;;;;;;7.57;5.67;;;39.70;85.50;;;;;;5119593;27;20596;-69
2021/06/18 12:15:23;;;;;;;6.10;5.47;;;40.20;81.10;;;;;;5120533;27;20453;-69
2021/06/18 12:17:57;;;;;;;5.90;5.30;;;40.10;78.20;;;;;;5121568;27;20520;-70
2021/06/18 12:20:29;;;;;;;7.60;6.40;;;40.60;73.50;;;;;;5112014;27;20510;-70
2021/06/18 12:22:56;;;;;;;7.03;5.03;;;40.90;74.20;;;;;;5112320;27;20584;-72
2021/06/18 12:25:24;;;;;;;4.90;4.40;;;40.20;69.60;;;;;;5113142;27;20514;-72
2021/06/18 12:27:55;;;;;;;8.30;4.80;;;39.30;70.00;;;;;;5113924;27;20472;-69
2021/06/18 12:30:23;;;;;;;9.00;4.80;;;39.00;72.00;;;;;;5111586;27;20473;-71
2021/06/18 12:32:52;;;;;;;6.30;5.17;;;39.90;69.50;;;;;;5111384;27;20456;-69
2021/06/18 12:35:22;;;;;;;9.10;4.93;;;41.00;67.60;;;;;;5112123;27;20578;-68
2021/06/18 12:37:52;;;;;;;10.20;4.60;;;41.60;69.00;;;;;;5109766;27;20453;-71
2021/06/18 12:40:22;;;;;;;8.87;4.47;;;41.90;67.60;;;;;;5116673;27;20800;-72
2021/06/18 12:42:51;;;;;;;5.43;4.80;;;42.20;59.90;;;;;;5110672;27;20437;-72
2021/06/18 12:45:20;;;;;;;6.87;4.80;;;42.00;60.00;;;;;;5112605;27;20471;-69
2021/06/18 12:47:49;;;;;;;7.37;5.07;;;42.00;57.80;;;;;;5111115;27;20503;-69
2021/06/18 12:50:28;;;;;;;6.50;4.17;;;42.60;58.00;;;;;;5111755;27;20619;-70
2021/06/18 12:52:57;;;;;;;7.20;4.90;;;42.40;57.60;;;;;;5113971;27;20526;-70
2021/06/18 12:55:29;;;;;;;5.07;3.40;;;42.60;57.40;;;;;;5109873;27;20507;-68